Time;durP1;ratioP1;P1;durP2;ratioP2;P2;SDS_P1;SDS_P2;PMS_P1;PMS_P2;Temp;Humidity;BMP_temperature;BMP_pressure;BME280_temperature;BME280_humidity;BME280_pressure;Samples;Min_cycle;Max_cycle;Signal;HPM_P1;HPM_P2
2023/01/17 00:01:06;;;;;;;1.03;0.93;;;5.40;97.30;;;;;;4955148;28;20436;-86
2023/01/17 00:03:33;;;;;;;1.10;1.00;;;5.40;97.30;;;;;;4954519;28;20178;-86
2023/01/17 00:11:27;;;;;;;1.00;0.90;;;5.40;97.30;;;;;;4971723;28;20445;-87
2023/01/17 00:13:52;;;;;;;0.97;0.87;;;5.40;97.30;;;;;;4970381;28;20425;-86
2023/01/17 00:16:17;;;;;;;1.17;1.07;;;5.30;97.30;;;;;;4954331;28;21068;-88
2023/01/17 00:26:01;;;;;;;1.00;0.90;;;5.30;97.30;;;;;;4970446;28;20415;-86
2023/01/17 01:35:58;;;;;;;1.10;1.00;;;5.20;97.30;;;;;;5004056;28;20465;-86
2023/01/17 01:38:24;;;;;;;1.10;1.00;;;5.20;97.30;;;;;;4988926;28;20197;-87
2023/01/17 01:40:52;;;;;;;1.10;1.00;;;5.30;97.30;;;;;;4976876;28;20198;-86
2023/01/17 01:43:36;;;;;;;1.47;1.37;;;5.30;97.30;;;;;;4975805;28;20692;-86
2023/01/17 01:46:02;;;;;;;1.00;0.90;;;5.30;97.30;;;;;;4976145;28;20440;-88
2023/01/17 01:48:35;;;;;;;1.10;1.00;;;5.30;97.30;;;;;;4978513;28;20429;-86
2023/01/17 01:51:04;;;;;;;1.20;1.10;;;5.30;97.30;;;;;;5012582;23;20559;-88
2023/01/17 01:53:31;;;;;;;1.00;0.90;;;5.30;97.30;;;;;;5001439;28;20468;-88
2023/01/17 01:55:58;;;;;;;1.10;1.00;;;5.30;97.30;;;;;;4993674;28;20471;-87
2023/01/17 01:58:30;;;;;;;1.00;0.90;;;5.30;97.30;;;;;;4994803;28;20464;-87
2023/01/17 02:00:55;;;;;;;0.80;0.70;;;5.30;97.30;;;;;;4984091;28;20469;-88
2023/01/17 02:03:26;;;;;;;0.90;0.80;;;5.30;97.30;;;;;;4974246;28;20430;-87
2023/01/17 02:05:52;;;;;;;1.10;1.00;;;5.30;97.30;;;;;;4975650;28;20225;-88
2023/01/17 02:08:20;;;;;;;1.10;1.00;;;5.30;97.30;;;;;;4974316;28;20813;-87
2023/01/17 02:10:46;;;;;;;1.10;1.00;;;5.20;97.30;;;;;;4990408;28;20345;-88
2023/01/17 02:13:14;;;;;;;0.97;0.90;;;5.20;97.30;;;;;;4974105;28;20508;-88
2023/01/17 02:16:07;;;;;;;1.10;1.00;;;5.20;97.30;;;;;;4975234;28;20461;-87
2023/01/17 02:18:38;;;;;;;1.07;0.97;;;5.10;97.30;;;;;;4973783;28;20429;-86
2023/01/17 02:21:25;;;;;;;1.10;1.00;;;5.10;97.30;;;;;;4972705;28;20442;-88
2023/01/17 02:24:14;;;;;;;1.00;0.90;;;5.10;97.30;;;;;;4973548;28;20414;-88
2023/01/17 02:26:58;;;;;;;1.20;1.10;;;5.00;97.30;;;;;;4973690;28;20422;-88
2023/01/17 02:29:50;;;;;;;1.10;1.00;;;5.00;97.30;;;;;;4973541;28;20428;-88
2023/01/17 02:32:37;;;;;;;1.10;1.00;;;5.00;97.30;;;;;;4973824;28;20445;-88
2023/01/17 02:35:30;;;;;;;1.10;1.00;;;4.90;97.30;;;;;;4973213;28;20461;-88
2023/01/17 02:38:06;;;;;;;1.33;1.23;;;4.90;97.30;;;;;;4973488;28;20953;-88
2023/01/17 02:40:40;;;;;;;1.10;1.00;;;4.80;97.30;;;;;;4974385;28;20437;-88
2023/01/17 02:43:10;;;;;;;1.00;0.90;;;4.90;97.30;;;;;;4973412;28;20410;-88
2023/01/17 02:45:36;;;;;;;1.00;0.90;;;4.90;97.30;;;;;;4973419;28;20449;-87
2023/01/17 02:48:01;;;;;;;1.13;1.03;;;4.90;97.30;;;;;;4974628;28;20422;-87
2023/01/17 02:50:50;;;;;;;1.10;1.00;;;4.90;97.30;;;;;;4972707;28;20234;-87
2023/01/17 02:53:32;;;;;;;1.00;0.90;;;4.90;97.30;;;;;;4973631;28;20253;-89
2023/01/17 02:56:17;;;;;;;1.10;1.00;;;4.90;97.30;;;;;;4974531;28;20473;-88
2023/01/17 02:59:03;;;;;;;0.97;0.87;;;4.90;97.30;;;;;;4972698;28;20929;-88
2023/01/17 03:01:35;;;;;;;1.00;0.90;;;4.90;97.30;;;;;;4973436;28;20426;-88
2023/01/17 03:04:14;;;;;;;1.00;0.90;;;4.80;97.30;;;;;;4973171;28;20850;-87
2023/01/17 03:06:50;;;;;;;1.10;1.00;;;4.80;97.30;;;;;;4973166;28;20410;-87
2023/01/17 03:09:17;;;;;;;1.10;1.00;;;4.80;97.30;;;;;;4972900;28;20505;-87
2023/01/17 03:11:43;;;;;;;1.47;1.37;;;4.80;97.30;;;;;;4972613;28;20492;-87
2023/01/17 03:14:08;;;;;;;1.20;1.10;;;4.80;97.30;;;;;;4972516;28;20948;-87
2023/01/17 03:16:34;;;;;;;1.10;1.00;;;4.80;97.30;;;;;;4972607;28;20214;-88
2023/01/17 03:18:59;;;;;;;1.20;1.10;;;4.80;97.30;;;;;;4972774;28;20269;-88
2023/01/17 03:21:25;;;;;;;1.00;0.90;;;4.80;97.30;;;;;;4972383;28;20205;-87
2023/01/17 03:23:50;;;;;;;1.10;1.00;;;4.80;97.30;;;;;;4972498;28;20597;-87
2023/01/17 03:26:16;;;;;;;1.00;0.90;;;4.80;97.30;;;;;;4972231;28;20186;-88
2023/01/17 03:28:42;;;;;;;1.00;0.90;;;4.80;97.30;;;;;;4972416;28;20198;-87
2023/01/17 03:31:07;;;;;;;0.90;0.80;;;4.80;97.30;;;;;;4972282;28;20297;-87
2023/01/17 03:33:33;;;;;;;1.10;1.00;;;4.80;97.30;;;;;;4972506;28;20214;-88
2023/01/17 03:35:58;;;;;;;0.93;0.83;;;4.80;97.30;;;;;;4972379;28;20214;-88
2023/01/17 03:38:25;;;;;;;1.00;0.90;;;4.80;97.30;;;;;;4974436;28;20178;-87
2023/01/17 03:40:51;;;;;;;1.10;1.00;;;4.80;97.30;;;;;;4984445;28;20803;-86
2023/01/17 03:43:16;;;;;;;1.00;0.90;;;4.80;97.30;;;;;;4990134;28;20464;-88
2023/01/17 03:45:42;;;;;;;0.97;0.87;;;4.70;97.30;;;;;;4990768;28;20182;-87
2023/01/17 03:48:07;;;;;;;1.10;1.00;;;4.70;97.30;;;;;;4990857;28;20190;-87
2023/01/17 03:50:33;;;;;;;1.00;0.90;;;4.70;97.30;;;;;;4991846;28;20347;-87
2023/01/17 03:52:59;;;;;;;1.20;1.10;;;4.80;97.30;;;;;;4992304;28;20223;-87
2023/01/17 03:55:24;;;;;;;1.00;0.90;;;4.80;97.30;;;;;;4991347;28;20206;-88
2023/01/17 03:57:50;;;;;;;1.00;0.90;;;4.80;97.30;;;;;;4991605;28;20177;-87
2023/01/17 04:00:15;;;;;;;0.90;0.80;;;4.80;97.30;;;;;;4990564;28;20280;-87
2023/01/17 04:02:41;;;;;;;1.10;1.00;;;4.80;97.30;;;;;;4991734;28;20205;-86
2023/01/17 04:05:07;;;;;;;1.00;0.90;;;4.90;97.30;;;;;;4990555;28;20205;-87
2023/01/17 04:07:33;;;;;;;1.00;0.90;;;4.90;97.30;;;;;;4991290;28;20250;-88
2023/01/17 04:09:58;;;;;;;1.10;1.00;;;4.90;97.30;;;;;;4990530;28;20420;-88
2023/01/17 04:12:24;;;;;;;0.90;0.80;;;4.90;97.30;;;;;;4992379;28;20178;-88
2023/01/17 04:14:49;;;;;;;1.77;1.23;;;4.90;97.30;;;;;;4991044;28;20197;-88
2023/01/17 04:17:18;;;;;;;2.00;1.50;;;4.90;97.30;;;;;;4991128;28;20669;-88
2023/01/17 04:19:44;;;;;;;1.10;1.00;;;4.80;97.30;;;;;;4990756;28;20174;-88
2023/01/17 04:22:10;;;;;;;1.10;1.00;;;4.80;97.30;;;;;;4990835;28;20429;-89
2023/01/17 04:24:35;;;;;;;1.10;1.00;;;4.80;97.30;;;;;;4990831;28;20412;-87
2023/01/17 04:27:03;;;;;;;1.10;1.00;;;4.80;97.30;;;;;;4990716;28;20279;-88
2023/01/17 04:29:28;;;;;;;0.93;0.83;;;4.80;97.30;;;;;;4990810;28;20268;-87
2023/01/17 04:31:54;;;;;;;1.00;0.90;;;4.70;97.30;;;;;;4984155;28;20544;-89
2023/01/17 04:34:19;;;;;;;1.23;1.13;;;4.70;97.30;;;;;;4980174;28;20213;-87
2023/01/17 04:36:45;;;;;;;1.00;0.90;;;4.70;97.30;;;;;;4980152;28;20624;-87
2023/01/17 04:39:10;;;;;;;1.00;0.90;;;4.70;97.30;;;;;;4978342;28;20182;-88
2023/01/17 04:41:36;;;;;;;1.00;0.90;;;4.70;97.30;;;;;;4980866;28;20195;-88
2023/01/17 04:44:01;;;;;;;1.00;0.90;;;4.70;97.30;;;;;;4980256;28;20197;-88
2023/01/17 04:46:27;;;;;;;0.93;0.90;;;4.70;97.30;;;;;;4979555;28;20232;-88
2023/01/17 04:48:52;;;;;;;0.90;0.80;;;4.70;97.30;;;;;;4980521;28;20257;-88
2023/01/17 04:51:18;;;;;;;2.50;1.27;;;4.70;97.30;;;;;;4978019;28;20218;-87
2023/01/17 04:53:43;;;;;;;1.10;1.00;;;4.60;97.30;;;;;;4981433;28;20280;-89
2023/01/17 04:56:09;;;;;;;1.00;0.90;;;4.60;97.30;;;;;;4990200;28;20225;-87
2023/01/17 04:58:34;;;;;;;1.10;1.00;;;4.60;97.30;;;;;;4980867;28;20179;-88
2023/01/17 05:01:02;;;;;;;1.00;0.90;;;4.60;97.30;;;;;;4981979;28;20202;-87
2023/01/17 05:03:28;;;;;;;1.33;1.10;;;4.50;97.30;;;;;;4978164;28;20704;-88
2023/01/17 05:05:53;;;;;;;3.93;1.80;;;4.60;97.30;;;;;;4980591;28;20421;-88
2023/01/17 05:08:19;;;;;;;1.20;1.10;;;4.50;97.30;;;;;;4976200;28;20190;-88
2023/01/17 05:10:47;;;;;;;1.07;0.97;;;4.50;97.30;;;;;;4980093;28;20208;-88
2023/01/17 05:13:13;;;;;;;1.10;1.00;;;4.50;97.30;;;;;;4986911;28;20182;-89
2023/01/17 05:15:39;;;;;;;1.10;1.00;;;4.60;97.30;;;;;;4986146;28;20515;-87
2023/01/17 05:18:07;;;;;;;1.17;1.07;;;4.60;97.30;;;;;;4973874;28;20843;-88
2023/01/17 05:20:33;;;;;;;1.03;0.93;;;4.60;97.30;;;;;;4973982;28;20198;-88
2023/01/17 05:22:59;;;;;;;1.10;1.00;;;4.60;97.30;;;;;;4971872;28;20449;-87
2023/01/17 05:25:28;;;;;;;1.20;1.10;;;4.60;97.30;;;;;;4970150;28;20465;-88
2023/01/17 05:27:53;;;;;;;1.13;1.03;;;4.60;97.30;;;;;;4972659;28;20245;-88
2023/01/17 05:30:20;;;;;;;1.00;0.90;;;4.60;97.30;;;;;;4971602;28;20524;-87
2023/01/17 05:32:51;;;;;;;1.00;0.90;;;4.60;97.30;;;;;;4970708;28;20190;-87
2023/01/17 05:35:22;;;;;;;1.00;0.90;;;4.60;97.30;;;;;;4973398;28;21000;-87
2023/01/17 05:37:49;;;;;;;1.10;1.00;;;4.60;97.30;;;;;;4970376;28;20831;-89
2023/01/17 05:40:19;;;;;;;1.00;0.90;;;4.60;97.30;;;;;;4969020;28;20817;-87
2023/01/17 05:42:46;;;;;;;0.97;0.87;;;4.60;97.30;;;;;;4969792;28;20426;-88
2023/01/17 05:45:15;;;;;;;1.10;1.00;;;4.60;97.30;;;;;;4977193;28;20430;-88
2023/01/17 05:47:42;;;;;;;1.00;0.90;;;4.60;97.30;;;;;;4978567;28;20851;-87
2023/01/17 05:50:09;;;;;;;1.10;1.00;;;4.60;97.30;;;;;;4978273;28;20440;-87
2023/01/17 05:52:35;;;;;;;1.00;0.90;;;4.60;97.30;;;;;;4978761;28;20429;-87
2023/01/17 05:55:00;;;;;;;1.00;0.90;;;4.60;97.30;;;;;;4982467;28;20696;-88
2023/01/17 05:57:26;;;;;;;1.00;0.90;;;4.60;97.30;;;;;;4980685;28;20178;-89
2023/01/17 05:59:51;;;;;;;1.10;1.00;;;4.60;97.30;;;;;;4989773;28;20186;-87
2023/01/17 06:02:16;;;;;;;2.00;1.57;;;4.60;97.30;;;;;;4989503;28;20427;-89
2023/01/17 06:04:42;;;;;;;1.17;1.07;;;4.60;97.30;;;;;;4990153;28;20178;-90
2023/01/17 06:07:07;;;;;;;1.10;1.00;;;4.60;97.30;;;;;;4989568;28;20245;-88
2023/01/17 06:09:33;;;;;;;1.10;1.00;;;4.70;97.30;;;;;;4989909;28;20181;-88
2023/01/17 06:11:58;;;;;;;1.10;1.00;;;4.70;97.30;;;;;;4990583;28;20194;-88
2023/01/17 06:14:24;;;;;;;1.10;1.00;;;4.70;97.30;;;;;;4989781;28;20564;-88
2023/01/17 06:16:49;;;;;;;0.90;0.80;;;4.70;97.30;;;;;;4987149;28;20240;-87
2023/01/17 06:19:15;;;;;;;1.00;0.90;;;4.70;97.30;;;;;;4972091;28;20294;-88
2023/01/17 06:21:40;;;;;;;1.10;1.00;;;4.60;97.30;;;;;;4968613;28;20203;-88
2023/01/17 06:24:06;;;;;;;1.10;1.00;;;4.60;97.30;;;;;;4968611;28;20629;-87
2023/01/17 06:26:31;;;;;;;0.80;0.70;;;4.70;97.30;;;;;;4968866;28;20179;-88
2023/01/17 06:28:57;;;;;;;1.10;1.03;;;4.60;97.30;;;;;;4968190;28;20182;-88
2023/01/17 06:31:22;;;;;;;1.03;0.93;;;4.60;97.30;;;;;;4970163;28;20216;-87
2023/01/17 06:33:47;;;;;;;1.10;1.00;;;4.60;97.30;;;;;;4971610;28;20174;-89
2023/01/17 06:36:13;;;;;;;2.60;1.10;;;4.60;97.30;;;;;;4974333;28;20212;-87
2023/01/17 06:38:38;;;;;;;4.50;2.33;;;4.60;97.30;;;;;;4974692;28;20179;-88
2023/01/17 06:41:04;;;;;;;1.00;0.90;;;4.60;97.30;;;;;;4975270;28;20203;-87
2023/01/17 06:44:16;;;;;;;1.10;1.00;;;4.60;97.30;;;;;;4979882;28;20187;-87
2023/01/17 06:46:42;;;;;;;1.17;1.07;;;4.50;97.30;;;;;;4971517;28;20194;-87
2023/01/17 06:49:07;;;;;;;1.10;1.00;;;4.50;97.30;;;;;;4976935;28;20797;-87
2023/01/17 06:51:33;;;;;;;1.00;0.90;;;4.60;97.30;;;;;;4974799;28;20472;-87
2023/01/17 06:53:58;;;;;;;1.93;1.10;;;4.60;97.30;;;;;;4987569;28;20205;-87
2023/01/17 06:56:24;;;;;;;1.00;0.90;;;4.60;97.30;;;;;;4982073;28;20201;-88
2023/01/17 06:58:50;;;;;;;1.00;0.90;;;4.60;97.30;;;;;;4990520;28;20649;-87
2023/01/17 07:01:16;;;;;;;1.03;0.93;;;4.60;97.30;;;;;;4978481;28;20194;-89
2023/01/17 07:03:42;;;;;;;1.00;0.90;;;4.60;97.30;;;;;;4984399;28;20440;-87
2023/01/17 07:06:10;;;;;;;0.87;0.77;;;4.60;97.30;;;;;;4983223;28;20976;-88
2023/01/17 07:08:36;;;;;;;1.30;1.20;;;4.60;97.30;;;;;;4984587;28;20178;-86
2023/01/17 07:11:06;;;;;;;1.23;1.13;;;4.60;97.30;;;;;;4993659;28;20437;-88
2023/01/17 07:13:37;;;;;;;1.20;1.10;;;4.60;97.30;;;;;;4994116;28;20427;-87
2023/01/17 07:16:03;;;;;;;1.10;1.00;;;4.60;97.30;;;;;;4994153;28;20460;-87
2023/01/17 07:18:30;;;;;;;0.90;0.80;;;4.50;97.30;;;;;;4995651;28;20435;-87
2023/01/17 07:20:55;;;;;;;1.43;1.33;;;4.50;97.30;;;;;;4996673;28;20441;-87
2023/01/17 07:23:23;;;;;;;2.50;2.30;;;4.50;97.30;;;;;;4996095;28;20424;-87
2023/01/17 07:25:59;;;;;;;1.10;1.00;;;4.50;97.30;;;;;;5012441;28;20170;-89
2023/01/17 07:28:26;;;;;;;1.37;1.30;;;4.40;97.30;;;;;;4998911;28;20417;-87
2023/01/17 07:30:53;;;;;;;0.90;0.80;;;4.50;97.30;;;;;;4993075;28;20465;-87
2023/01/17 07:33:19;;;;;;;1.00;0.90;;;4.50;97.30;;;;;;4992979;28;20421;-89
2023/01/17 07:35:44;;;;;;;1.20;1.10;;;4.40;97.30;;;;;;4979053;28;20468;-87
2023/01/17 07:38:16;;;;;;;1.47;1.47;;;4.50;97.30;;;;;;4978316;28;20186;-90
2023/01/17 07:40:42;;;;;;;1.17;1.07;;;4.50;97.30;;;;;;4984047;28;20516;-87
2023/01/17 07:43:14;;;;;;;1.40;1.30;;;4.50;97.30;;;;;;4992690;28;20916;-88
2023/01/17 07:45:44;;;;;;;1.10;1.00;;;4.50;97.30;;;;;;4992622;28;20186;-87
2023/01/17 07:48:10;;;;;;;1.00;0.90;;;4.50;97.30;;;;;;4992440;28;20439;-87
2023/01/17 07:50:44;;;;;;;1.10;1.00;;;4.50;97.30;;;;;;5029516;23;20488;-94
2023/01/17 07:53:12;;;;;;;1.73;1.63;;;4.50;97.30;;;;;;5006950;28;20469;-92
2023/01/17 07:55:50;;;;;;;3.30;1.57;;;4.50;97.30;;;;;;5009979;28;20463;-93
2023/01/17 07:58:23;;;;;;;1.00;0.90;;;4.50;97.30;;;;;;5008443;28;20510;-93
2023/01/17 08:00:54;;;;;;;1.30;1.20;;;4.50;97.20;;;;;;5009961;28;20451;-92
2023/01/17 08:03:53;;;;;;;2.17;1.97;;;4.50;97.20;;;;;;5012490;28;20440;-92
2023/01/17 08:06:33;;;;;;;1.00;0.90;;;4.50;97.20;;;;;;4947707;28;20428;-89
2023/01/17 08:09:04;;;;;;;1.63;1.53;;;4.50;97.00;;;;;;5005535;28;20408;-93
2023/01/17 08:11:41;;;;;;;1.23;1.13;;;4.40;97.00;;;;;;5011848;28;20440;-93
2023/01/17 08:14:13;;;;;;;1.20;1.10;;;4.40;96.90;;;;;;5009580;28;20412;-93
2023/01/17 08:16:41;;;;;;;1.33;1.23;;;4.50;96.90;;;;;;5013460;28;20451;-92
2023/01/17 08:21:53;;;;;;;1.20;1.10;;;4.50;96.70;;;;;;5024990;28;20730;-91
2023/01/17 08:24:21;;;;;;;1.20;1.10;;;4.50;96.60;;;;;;5040428;23;20495;-93
2023/01/17 08:29:23;;;;;;;1.10;1.00;;;4.30;96.60;;;;;;5049037;28;20471;-92
2023/01/17 08:31:51;;;;;;;1.10;1.00;;;4.30;96.70;;;;;;5030537;28;20428;-91
2023/01/17 08:34:22;;;;;;;1.07;0.97;;;4.30;96.80;;;;;;5007313;28;21004;-94
2023/01/17 08:44:34;;;;;;;0.97;0.87;;;4.50;95.80;;;;;;5041996;28;20505;-93
2023/01/17 08:47:22;;;;;;;1.17;1.07;;;4.50;95.50;;;;;;5026277;28;20706;-94
2023/01/17 09:07:54;;;;;;;1.20;1.10;;;4.70;95.20;;;;;;5044022;28;20490;-92
2023/01/17 09:10:23;;;;;;;1.03;0.93;;;4.70;95.10;;;;;;5027328;28;20419;-93
2023/01/17 09:12:49;;;;;;;1.00;0.90;;;4.80;95.10;;;;;;5003860;28;20443;-91
2023/01/17 09:15:18;;;;;;;1.10;1.00;;;4.70;95.00;;;;;;5011277;28;20471;-93
2023/01/17 09:17:45;;;;;;;1.10;1.00;;;4.70;95.30;;;;;;5009799;28;20170;-90
2023/01/17 09:20:10;;;;;;;1.00;0.90;;;4.70;95.20;;;;;;5003147;28;20459;-94
2023/01/17 09:22:37;;;;;;;1.00;0.90;;;4.80;94.90;;;;;;5003503;28;20417;-91
2023/01/17 09:25:04;;;;;;;1.00;0.90;;;4.80;94.60;;;;;;5003659;28;20181;-91
2023/01/17 09:27:30;;;;;;;1.00;0.90;;;4.80;94.60;;;;;;5008725;28;20438;-92
2023/01/17 09:29:56;;;;;;;1.10;1.00;;;4.90;94.40;;;;;;5008809;28;20444;-92
2023/01/17 09:32:21;;;;;;;1.20;1.10;;;4.90;94.50;;;;;;5003970;28;20193;-91
2023/01/17 09:34:47;;;;;;;1.00;0.90;;;5.00;94.00;;;;;;5001461;28;20201;-92
2023/01/17 09:37:12;;;;;;;0.90;0.80;;;5.10;93.90;;;;;;5012187;28;20188;-91
2023/01/17 09:39:38;;;;;;;1.73;1.40;;;5.20;93.80;;;;;;5011577;28;20188;-95
2023/01/17 09:42:21;;;;;;;1.30;1.20;;;5.30;94.10;;;;;;5014870;28;20205;-95
2023/01/17 09:44:51;;;;;;;1.50;1.40;;;5.60;93.80;;;;;;5006793;28;20259;-94
2023/01/17 09:47:43;;;;;;;1.00;0.90;;;5.70;93.30;;;;;;5003848;28;20413;-93
2023/01/17 09:50:53;;;;;;;2.60;1.97;;;5.80;92.70;;;;;;5003707;28;20462;-92
2023/01/17 09:53:22;;;;;;;2.70;2.50;;;5.70;92.00;;;;;;5007310;28;20403;-94
2023/01/17 09:56:05;;;;;;;1.00;0.90;;;5.50;92.70;;;;;;5006166;28;20493;-92
2023/01/17 09:59:01;;;;;;;1.10;1.00;;;5.40;92.80;;;;;;5013018;23;20503;-92
2023/01/17 10:01:41;;;;;;;1.43;1.10;;;5.30;93.10;;;;;;4997814;28;20517;-93
2023/01/17 10:04:51;;;;;;;9.83;1.40;;;5.10;93.60;;;;;;4983417;28;20431;-95
2023/01/17 10:07:43;;;;;;;1.03;0.93;;;4.90;93.90;;;;;;4990290;28;20467;-91
2023/01/17 10:10:24;;;;;;;1.77;1.13;;;4.90;94.30;;;;;;4990916;28;20417;-94
2023/01/17 10:13:27;;;;;;;1.10;1.00;;;4.80;94.30;;;;;;4991824;28;20791;-93
2023/01/17 10:16:17;;;;;;;1.00;0.90;;;4.80;94.60;;;;;;4995597;28;20545;-96
2023/01/17 10:19:04;;;;;;;1.00;0.90;;;4.70;94.70;;;;;;5000558;28;20436;-94
2023/01/17 10:22:01;;;;;;;1.10;1.00;;;4.70;95.20;;;;;;4994303;28;20445;-92
2023/01/17 10:25:41;;;;;;;1.40;1.30;;;4.80;94.80;;;;;;4990226;28;20444;-92
2023/01/17 10:31:54;;;;;;;1.00;0.90;;;5.00;94.60;;;;;;4901816;29;20444;-92
2023/01/17 10:34:45;;;;;;;0.90;0.80;;;5.10;94.30;;;;;;4938334;28;20417;-94
2023/01/17 10:37:42;;;;;;;0.97;0.87;;;5.20;94.30;;;;;;4970334;28;20453;-91
2023/01/17 10:40:19;;;;;;;2.40;1.33;;;5.30;93.50;;;;;;4971554;28;20418;-93
2023/01/17 10:43:01;;;;;;;2.30;1.37;;;5.30;93.70;;;;;;4967474;28;20426;-91
2023/01/17 10:45:38;;;;;;;1.20;1.10;;;5.40;93.50;;;;;;4968374;28;20424;-91
2023/01/17 10:48:14;;;;;;;0.80;0.70;;;5.40;93.80;;;;;;4967723;28;20480;-91
2023/01/17 10:51:12;;;;;;;0.90;0.80;;;5.40;93.40;;;;;;4969998;28;20461;-94
2023/01/17 10:53:57;;;;;;;1.10;1.00;;;5.50;93.70;;;;;;4946639;28;20430;-93
2023/01/17 10:56:27;;;;;;;1.10;1.00;;;5.60;93.30;;;;;;4965370;28;20547;-92
2023/01/17 10:59:25;;;;;;;1.20;1.20;;;5.60;92.80;;;;;;4968812;28;20472;-93
2023/01/17 11:01:53;;;;;;;1.00;0.90;;;5.60;92.90;;;;;;4972730;28;20446;-92
2023/01/17 11:04:25;;;;;;;1.10;1.00;;;5.60;92.80;;;;;;4973505;28;20442;-92
2023/01/17 11:07:10;;;;;;;1.10;1.00;;;5.60;92.70;;;;;;4968125;28;20622;-91
2023/01/17 11:09:45;;;;;;;1.00;0.90;;;5.70;92.20;;;;;;4971104;28;20424;-93
2023/01/17 11:12:34;;;;;;;0.90;0.80;;;5.70;92.50;;;;;;4972454;28;20441;-92
2023/01/17 11:15:15;;;;;;;1.43;1.30;;;5.80;92.40;;;;;;4967435;28;20466;-92
2023/01/17 11:18:11;;;;;;;1.10;1.00;;;5.90;92.20;;;;;;4967827;28;20437;-93
2023/01/17 11:20:45;;;;;;;0.90;0.80;;;6.00;91.80;;;;;;4957471;28;20445;-92
2023/01/17 11:23:42;;;;;;;1.00;0.90;;;6.10;91.90;;;;;;4963262;28;20417;-92
2023/01/17 11:26:24;;;;;;;1.20;1.10;;;6.10;91.60;;;;;;4957124;29;20941;-93
2023/01/17 11:29:21;;;;;;;1.20;1.10;;;6.10;91.30;;;;;;4942114;29;20510;-90
2023/01/17 11:32:00;;;;;;;1.20;1.10;;;6.20;91.20;;;;;;4941289;29;20442;-90
2023/01/17 11:34:33;;;;;;;3.80;1.00;;;6.10;91.00;;;;;;4941929;29;20433;-90
2023/01/17 11:37:31;;;;;;;0.83;0.80;;;6.10;91.10;;;;;;4941550;29;20415;-91
2023/01/17 11:40:20;;;;;;;1.10;1.00;;;6.00;90.70;;;;;;4900941;29;20406;-91
2023/01/17 11:43:04;;;;;;;0.97;0.87;;;6.10;90.90;;;;;;4945191;29;20395;-92
2023/01/17 11:45:45;;;;;;;1.27;1.20;;;6.10;90.80;;;;;;4946894;29;20439;-92
2023/01/17 11:48:23;;;;;;;1.00;0.90;;;6.20;90.70;;;;;;4941105;29;20427;-92
2023/01/17 11:51:43;;;;;;;0.90;0.80;;;6.20;90.90;;;;;;4940288;29;20807;-93
2023/01/17 11:54:54;;;;;;;1.10;1.00;;;6.30;90.80;;;;;;4933690;29;20419;-92
2023/01/17 11:57:55;;;;;;;1.47;1.20;;;6.40;90.60;;;;;;4951650;28;20461;-93
2023/01/17 12:00:25;;;;;;;1.00;0.90;;;6.50;90.20;;;;;;4955726;28;20925;-91
2023/01/17 12:03:43;;;;;;;1.13;1.03;;;6.60;89.70;;;;;;4962104;28;20445;-92
2023/01/17 12:16:54;;;;;;;2.40;1.67;;;6.50;88.80;;;;;;5038803;28;20491;-93
2023/01/17 12:19:59;;;;;;;1.23;1.10;;;6.40;88.50;;;;;;5031091;28;20420;-95
2023/01/17 12:22:56;;;;;;;1.03;0.93;;;6.20;88.60;;;;;;5021518;28;20454;-94
2023/01/17 12:25:42;;;;;;;1.00;0.90;;;5.90;89.20;;;;;;5022285;28;20552;-93
2023/01/17 12:28:44;;;;;;;1.23;1.20;;;5.60;90.00;;;;;;5021010;28;20476;-94
2023/01/17 12:31:35;;;;;;;1.27;1.17;;;5.40;90.50;;;;;;5021593;28;20447;-92
2023/01/17 12:34:15;;;;;;;1.40;1.30;;;5.30;91.10;;;;;;5020803;28;20411;-93
2023/01/17 12:36:50;;;;;;;1.40;1.30;;;5.20;91.50;;;;;;5019376;28;20463;-92
2023/01/17 12:39:23;;;;;;;1.20;1.10;;;5.20;91.50;;;;;;5017651;28;20423;-92
2023/01/17 12:42:02;;;;;;;1.13;1.03;;;5.10;91.90;;;;;;5016709;28;20485;-93
2023/01/17 12:44:53;;;;;;;0.90;0.80;;;5.20;92.30;;;;;;5017421;28;20423;-90
2023/01/17 12:47:20;;;;;;;1.10;1.00;;;5.70;91.10;;;;;;5017409;28;20419;-93
2023/01/17 12:49:57;;;;;;;2.10;1.10;;;6.20;90.70;;;;;;5009731;28;20625;-92
2023/01/17 12:52:51;;;;;;;0.97;0.87;;;6.70;89.00;;;;;;5005700;28;20444;-91
2023/01/17 12:55:33;;;;;;;1.27;1.00;;;7.10;87.60;;;;;;5001510;28;20454;-91
2023/01/17 12:58:01;;;;;;;1.00;0.90;;;7.50;87.30;;;;;;5013851;28;20411;-92
2023/01/17 13:00:28;;;;;;;5.17;1.20;;;7.60;85.70;;;;;;5008405;28;20450;-90
2023/01/17 13:03:23;;;;;;;1.20;1.10;;;7.50;85.70;;;;;;5009921;28;20442;-91
2023/01/17 13:05:50;;;;;;;1.00;0.90;;;7.50;86.00;;;;;;5014304;28;20427;-92
2023/01/17 13:08:22;;;;;;;1.37;1.27;;;7.50;85.60;;;;;;5004582;28;21061;-92
2023/01/17 13:11:45;;;;;;;;;;;;;;;;;;;;;
2023/01/17 13:14:14;;;;;;;1.67;1.57;;;6.60;86.80;;;;;;4973924;28;20507;-93
2023/01/17 13:17:24;;;;;;;3.63;1.43;;;6.40;88.10;;;;;;5009181;28;20474;-93
2023/01/17 13:20:24;;;;;;;3.00;1.63;;;6.40;88.10;;;;;;4925602;28;20459;-91
2023/01/17 13:23:02;;;;;;;1.27;1.17;;;6.50;88.40;;;;;;4971852;28;20415;-92
2023/01/17 13:25:44;;;;;;;1.73;1.63;;;6.40;88.30;;;;;;5001522;28;20419;-91
2023/01/17 13:28:34;;;;;;;1.70;1.60;;;6.10;88.90;;;;;;5014393;28;20488;-92
2023/01/17 13:31:44;;;;;;;1.53;1.43;;;5.90;89.40;;;;;;5009281;28;20546;-93
2023/01/17 13:34:23;;;;;;;1.77;1.43;;;5.80;90.20;;;;;;4999401;28;20474;-92
2023/01/17 13:37:18;;;;;;;;;;;;;;;;;;;;;
2023/01/17 13:40:25;;;;;;;1.10;1.00;;;5.60;90.70;;;;;;5021204;28;20423;-92
2023/01/17 13:42:54;;;;;;;1.00;0.90;;;5.60;90.40;;;;;;4992700;28;20424;-93
2023/01/17 13:45:26;;;;;;;1.40;1.13;;;5.50;90.50;;;;;;5017169;28;20446;-93
2023/01/17 13:47:52;;;;;;;0.90;0.80;;;5.50;90.30;;;;;;5017942;28;20415;-91
2023/01/17 13:50:37;;;;;;;1.10;1.10;;;5.40;90.50;;;;;;5013074;28;20423;-91
2023/01/17 13:53:41;;;;;;;1.00;0.90;;;5.40;90.80;;;;;;5013768;28;20954;-91
2023/01/17 13:56:21;;;;;;;1.00;0.90;;;5.40;91.10;;;;;;4919024;29;20475;-92
2023/01/17 13:58:50;;;;;;;1.30;1.20;;;5.40;91.10;;;;;;4927579;29;20437;-91
2023/01/17 14:01:21;;;;;;;1.17;1.13;;;5.40;90.90;;;;;;4989367;28;20542;-92
2023/01/17 14:03:53;;;;;;;1.17;1.07;;;5.40;90.80;;;;;;5011716;28;20784;-91
2023/01/17 14:06:32;;;;;;;1.00;0.90;;;5.30;90.70;;;;;;5024456;28;20473;-90
2023/01/17 14:09:07;;;;;;;1.00;0.90;;;5.20;90.60;;;;;;5029505;28;20446;-91
2023/01/17 14:11:35;;;;;;;1.50;1.40;;;5.20;90.50;;;;;;5018758;23;20503;-88
2023/01/17 14:14:38;;;;;;;1.10;1.00;;;5.20;90.80;;;;;;4967025;28;20433;-87
2023/01/17 14:17:24;;;;;;;1.10;1.00;;;5.20;90.80;;;;;;4977316;28;20433;-87
2023/01/17 14:19:52;;;;;;;1.00;0.90;;;5.20;90.30;;;;;;4972073;28;20963;-88
2023/01/17 14:22:17;;;;;;;1.17;1.07;;;5.20;90.50;;;;;;4955011;28;20452;-88
2023/01/17 14:24:58;;;;;;;1.50;1.40;;;5.20;90.10;;;;;;4955819;28;20425;-89
2023/01/17 14:27:26;;;;;;;1.13;1.03;;;5.20;89.60;;;;;;4957454;28;20253;-88
2023/01/17 14:29:57;;;;;;;1.20;1.10;;;5.20;89.30;;;;;;4968691;28;20427;-88
2023/01/17 14:32:35;;;;;;;1.00;0.90;;;5.10;89.00;;;;;;4953011;28;20448;-87
2023/01/17 14:35:01;;;;;;;0.97;0.87;;;5.10;89.20;;;;;;4954206;28;20471;-88
2023/01/17 14:37:32;;;;;;;1.00;0.90;;;5.10;89.00;;;;;;4959930;28;20426;-88
2023/01/17 14:39:59;;;;;;;1.00;0.90;;;5.10;89.20;;;;;;4944531;29;20437;-89
2023/01/17 14:42:29;;;;;;;1.23;1.13;;;5.00;88.90;;;;;;4946060;28;20479;-88
2023/01/17 14:45:03;;;;;;;1.23;1.13;;;5.10;89.20;;;;;;4953410;28;20426;-87
2023/01/17 14:47:32;;;;;;;1.00;0.90;;;5.00;89.70;;;;;;4959358;28;20435;-88
2023/01/17 14:50:20;;;;;;;0.90;0.80;;;5.00;89.80;;;;;;4968008;28;20434;-91
2023/01/17 14:52:46;;;;;;;1.30;1.20;;;5.00;90.00;;;;;;4955121;28;20434;-88
2023/01/17 14:55:17;;;;;;;1.10;1.00;;;5.10;90.00;;;;;;4958229;28;20467;-88
2023/01/17 14:57:54;;;;;;;1.00;0.90;;;5.00;90.10;;;;;;4956892;28;20427;-88
2023/01/17 15:00:21;;;;;;;1.00;0.90;;;5.10;90.00;;;;;;4954127;28;20416;-88
2023/01/17 15:02:47;;;;;;;1.50;1.40;;;5.00;89.20;;;;;;4950411;28;20424;-88
2023/01/17 15:05:19;;;;;;;1.10;1.00;;;5.00;89.40;;;;;;4954174;28;20948;-87
2023/01/17 15:07:51;;;;;;;1.10;1.00;;;5.00;89.50;;;;;;4958594;28;20521;-88
2023/01/17 15:10:45;;;;;;;1.20;1.10;;;5.10;89.60;;;;;;4948309;28;20805;-87
2023/01/17 15:13:16;;;;;;;1.07;0.97;;;5.10;89.00;;;;;;4952723;28;20433;-88
2023/01/17 15:15:41;;;;;;;1.43;1.20;;;5.10;88.90;;;;;;4989315;28;20461;-88
2023/01/17 15:18:13;;;;;;;1.00;0.90;;;5.10;89.00;;;;;;4977316;28;20425;-86
2023/01/17 15:20:42;;;;;;;1.53;1.50;;;5.10;89.10;;;;;;4976898;28;20205;-88
2023/01/17 15:23:17;;;;;;;1.10;1.00;;;5.00;88.70;;;;;;4977085;28;20413;-87
2023/01/17 15:25:43;;;;;;;1.00;0.90;;;5.00;89.00;;;;;;4977196;28;20424;-89
2023/01/17 15:28:12;;;;;;;1.30;1.20;;;5.00;89.20;;;;;;4959345;28;20994;-89
2023/01/17 15:30:55;;;;;;;1.10;1.00;;;5.00;89.30;;;;;;4971876;28;20456;-88
2023/01/17 15:33:21;;;;;;;1.10;1.00;;;4.90;89.30;;;;;;4980644;28;20440;-87
2023/01/17 15:35:46;;;;;;;1.10;1.00;;;4.90;89.40;;;;;;4972950;28;20850;-88
2023/01/17 15:38:14;;;;;;;2.83;1.60;;;4.90;88.80;;;;;;4989677;28;20190;-87
2023/01/17 15:40:44;;;;;;;1.30;1.20;;;4.90;88.90;;;;;;4983804;28;20214;-87
2023/01/17 15:43:19;;;;;;;1.00;0.90;;;4.90;88.90;;;;;;4985749;28;20429;-87